sensor_id;sensor_type;location;lat;lon;timestamp;P1;durP1;ratioP1;P2;durP2;ratioP2
62058;SDS011;48017;51.064;7.014;2022-11-15T00:02:17;6.07;;;3.40;;
62058;SDS011;48017;51.064;7.014;2022-11-15T00:04:42;5.25;;;3.20;;
62058;SDS011;48017;51.064;7.014;2022-11-15T00:07:08;6.72;;;4.13;;
62058;SDS011;48017;51.064;7.014;2022-11-15T00:09:33;9.20;;;3.40;;
62058;SDS011;48017;51.064;7.014;2022-11-15T00:11:58;6.75;;;3.47;;
62058;SDS011;48017;51.064;7.014;2022-11-15T00:14:24;7.03;;;3.17;;
62058;SDS011;48017;51.064;7.014;2022-11-15T00:16:49;5.80;;;3.47;;
62058;SDS011;48017;51.064;7.014;2022-11-15T00:19:14;5.60;;;3.60;;
62058;SDS011;48017;51.064;7.014;2022-11-15T00:21:40;6.30;;;3.60;;
62058;SDS011;48017;51.064;7.014;2022-11-15T00:24:05;7.45;;;3.88;;
62058;SDS011;48017;51.064;7.014;2022-11-15T00:26:31;7.55;;;4.25;;
62058;SDS011;48017;51.064;7.014;2022-11-15T00:28:56;6.28;;;3.72;;
62058;SDS011;48017;51.064;7.014;2022-11-15T00:31:22;4.47;;;3.20;;
62058;SDS011;48017;51.064;7.014;2022-11-15T00:33:47;4.85;;;3.55;;
62058;SDS011;48017;51.064;7.014;2022-11-15T00:36:12;4.43;;;3.28;;
62058;SDS011;48017;51.064;7.014;2022-11-15T00:38:39;8.25;;;3.63;;
62058;SDS011;48017;51.064;7.014;2022-11-15T00:41:05;6.47;;;4.13;;
62058;SDS011;48017;51.064;7.014;2022-11-15T00:43:32;9.38;;;3.42;;
62058;SDS011;48017;51.064;7.014;2022-11-15T00:45:58;6.47;;;3.47;;
62058;SDS011;48017;51.064;7.014;2022-11-15T00:48:23;4.35;;;3.03;;
62058;SDS011;48017;51.064;7.014;2022-11-15T00:50:49;5.05;;;3.78;;
62058;SDS011;48017;51.064;7.014;2022-11-15T00:53:14;6.10;;;3.47;;
62058;SDS011;48017;51.064;7.014;2022-11-15T00:55:40;5.60;;;3.30;;
62058;SDS011;48017;51.064;7.014;2022-11-15T00:58:05;6.90;;;3.75;;
62058;SDS011;48017;51.064;7.014;2022-11-15T01:00:31;5.13;;;3.17;;
62058;SDS011;48017;51.064;7.014;2022-11-15T01:02:56;6.63;;;3.45;;
62058;SDS011;48017;51.064;7.014;2022-11-15T01:05:21;4.55;;;3.50;;
62058;SDS011;48017;51.064;7.014;2022-11-15T01:07:47;6.22;;;3.45;;
62058;SDS011;48017;51.064;7.014;2022-11-15T01:10:16;5.70;;;3.22;;
62058;SDS011;48017;51.064;7.014;2022-11-15T01:12:42;7.03;;;3.42;;
62058;SDS011;48017;51.064;7.014;2022-11-15T01:15:07;6.82;;;3.45;;
62058;SDS011;48017;51.064;7.014;2022-11-15T01:17:33;6.75;;;3.70;;
62058;SDS011;48017;51.064;7.014;2022-11-15T01:19:58;6.82;;;3.80;;
62058;SDS011;48017;51.064;7.014;2022-11-15T01:22:24;5.97;;;3.42;;
62058;SDS011;48017;51.064;7.014;2022-11-15T01:24:49;6.05;;;3.42;;
62058;SDS011;48017;51.064;7.014;2022-11-15T01:27:15;7.65;;;3.67;;
62058;SDS011;48017;51.064;7.014;2022-11-15T01:29:41;5.82;;;3.25;;
62058;SDS011;48017;51.064;7.014;2022-11-15T01:32:06;6.00;;;3.78;;
62058;SDS011;48017;51.064;7.014;2022-11-15T01:34:32;6.60;;;3.25;;
62058;SDS011;48017;51.064;7.014;2022-11-15T01:36:57;5.82;;;3.80;;
62058;SDS011;48017;51.064;7.014;2022-11-15T01:39:22;6.72;;;3.97;;
62058;SDS011;48017;51.064;7.014;2022-11-15T01:41:48;5.85;;;3.35;;
62058;SDS011;48017;51.064;7.014;2022-11-15T01:47:05;5.90;;;3.50;;
62058;SDS011;48017;51.064;7.014;2022-11-15T01:49:56;6.00;;;3.55;;
62058;SDS011;48017;51.064;7.014;2022-11-15T01:52:26;5.18;;;3.20;;
62058;SDS011;48017;51.064;7.014;2022-11-15T01:57:26;5.75;;;3.42;;
62058;SDS011;48017;51.064;7.014;2022-11-15T01:59:51;5.72;;;3.28;;
62058;SDS011;48017;51.064;7.014;2022-11-15T02:02:17;6.20;;;3.78;;
62058;SDS011;48017;51.064;7.014;2022-11-15T02:04:43;9.40;;;3.40;;
62058;SDS011;48017;51.064;7.014;2022-11-15T02:07:11;5.22;;;3.33;;
62058;SDS011;48017;51.064;7.014;2022-11-15T02:09:40;5.65;;;3.63;;
62058;SDS011;48017;51.064;7.014;2022-11-15T02:12:05;6.28;;;3.30;;
62058;SDS011;48017;51.064;7.014;2022-11-15T02:14:33;6.38;;;3.35;;
62058;SDS011;48017;51.064;7.014;2022-11-15T02:22:36;5.93;;;3.28;;
62058;SDS011;48017;51.064;7.014;2022-11-15T02:27:58;5.18;;;3.40;;
62058;SDS011;48017;51.064;7.014;2022-11-15T02:30:58;8.70;;;3.20;;
62058;SDS011;48017;51.064;7.014;2022-11-15T02:36:49;4.55;;;2.97;;
62058;SDS011;48017;51.064;7.014;2022-11-15T02:42:40;8.77;;;3.70;;
62058;SDS011;48017;51.064;7.014;2022-11-15T02:45:31;4.97;;;3.13;;
62058;SDS011;48017;51.064;7.014;2022-11-15T02:48:01;5.60;;;3.17;;
62058;SDS011;48017;51.064;7.014;2022-11-15T02:50:29;7.25;;;3.28;;
62058;SDS011;48017;51.064;7.014;2022-11-15T02:52:57;5.47;;;3.00;;
62058;SDS011;48017;51.064;7.014;2022-11-15T02:55:26;5.32;;;3.33;;
62058;SDS011;48017;51.064;7.014;2022-11-15T03:01:01;5.22;;;3.30;;
62058;SDS011;48017;51.064;7.014;2022-11-15T03:03:59;4.68;;;3.00;;
62058;SDS011;48017;51.064;7.014;2022-11-15T03:09:17;5.55;;;3.28;;
62058;SDS011;48017;51.064;7.014;2022-11-15T03:11:56;4.80;;;3.00;;
62058;SDS011;48017;51.064;7.014;2022-11-15T03:14:31;5.18;;;3.05;;
62058;SDS011;48017;51.064;7.014;2022-11-15T03:19:46;4.75;;;2.70;;
62058;SDS011;48017;51.064;7.014;2022-11-15T03:22:16;6.70;;;3.20;;
62058;SDS011;48017;51.064;7.014;2022-11-15T03:24:45;4.30;;;2.92;;
62058;SDS011;48017;51.064;7.014;2022-11-15T03:27:15;5.57;;;3.10;;
62058;SDS011;48017;51.064;7.014;2022-11-15T03:29:47;9.13;;;3.17;;
62058;SDS011;48017;51.064;7.014;2022-11-15T03:32:25;4.90;;;2.53;;
62058;SDS011;48017;51.064;7.014;2022-11-15T03:35:03;4.32;;;2.70;;
62058;SDS011;48017;51.064;7.014;2022-11-15T03:37:35;6.57;;;3.00;;
62058;SDS011;48017;51.064;7.014;2022-11-15T03:40:04;4.07;;;2.75;;
62058;SDS011;48017;51.064;7.014;2022-11-15T03:42:32;4.63;;;2.83;;
62058;SDS011;48017;51.064;7.014;2022-11-15T03:45:26;4.43;;;2.80;;
62058;SDS011;48017;51.064;7.014;2022-11-15T03:50:45;4.53;;;2.72;;
62058;SDS011;48017;51.064;7.014;2022-11-15T03:53:12;4.78;;;2.90;;
62058;SDS011;48017;51.064;7.014;2022-11-15T03:55:37;4.45;;;2.75;;
62058;SDS011;48017;51.064;7.014;2022-11-15T03:58:03;5.03;;;2.90;;
62058;SDS011;48017;51.064;7.014;2022-11-15T04:00:28;6.82;;;3.15;;
62058;SDS011;48017;51.064;7.014;2022-11-15T04:02:54;4.25;;;2.72;;
62058;SDS011;48017;51.064;7.014;2022-11-15T04:05:19;5.05;;;3.00;;
62058;SDS011;48017;51.064;7.014;2022-11-15T04:07:45;5.95;;;2.90;;
62058;SDS011;48017;51.064;7.014;2022-11-15T04:10:11;5.32;;;2.90;;
62058;SDS011;48017;51.064;7.014;2022-11-15T04:12:38;4.63;;;2.80;;
62058;SDS011;48017;51.064;7.014;2022-11-15T04:15:08;5.07;;;3.20;;
62058;SDS011;48017;51.064;7.014;2022-11-15T04:17:35;5.03;;;3.00;;
62058;SDS011;48017;51.064;7.014;2022-11-15T04:20:00;4.25;;;2.80;;
62058;SDS011;48017;51.064;7.014;2022-11-15T04:22:45;5.03;;;3.17;;
62058;SDS011;48017;51.064;7.014;2022-11-15T04:25:29;5.10;;;2.92;;
62058;SDS011;48017;51.064;7.014;2022-11-15T04:27:54;5.30;;;3.00;;
62058;SDS011;48017;51.064;7.014;2022-11-15T04:30:20;5.90;;;2.90;;
62058;SDS011;48017;51.064;7.014;2022-11-15T04:32:45;4.18;;;2.70;;
62058;SDS011;48017;51.064;7.014;2022-11-15T04:35:10;6.80;;;3.03;;
62058;SDS011;48017;51.064;7.014;2022-11-15T04:37:36;4.40;;;3.10;;
62058;SDS011;48017;51.064;7.014;2022-11-15T04:40:02;3.58;;;2.75;;
62058;SDS011;48017;51.064;7.014;2022-11-15T04:42:27;4.70;;;3.08;;
62058;SDS011;48017;51.064;7.014;2022-11-15T04:44:52;4.68;;;3.13;;
62058;SDS011;48017;51.064;7.014;2022-11-15T04:47:18;4.07;;;2.90;;
62058;SDS011;48017;51.064;7.014;2022-11-15T04:49:43;4.45;;;3.00;;
62058;SDS011;48017;51.064;7.014;2022-11-15T04:52:09;5.65;;;3.35;;
62058;SDS011;48017;51.064;7.014;2022-11-15T04:54:34;9.18;;;4.22;;
62058;SDS011;48017;51.064;7.014;2022-11-15T04:57:00;5.50;;;3.35;;
62058;SDS011;48017;51.064;7.014;2022-11-15T04:59:25;6.13;;;3.17;;
62058;SDS011;48017;51.064;7.014;2022-11-15T05:01:51;7.53;;;3.17;;
62058;SDS011;48017;51.064;7.014;2022-11-15T05:04:16;5.10;;;3.20;;
62058;SDS011;48017;51.064;7.014;2022-11-15T05:06:44;4.15;;;2.92;;
62058;SDS011;48017;51.064;7.014;2022-11-15T05:09:14;4.82;;;2.90;;
62058;SDS011;48017;51.064;7.014;2022-11-15T05:11:39;4.07;;;2.88;;
62058;SDS011;48017;51.064;7.014;2022-11-15T05:14:05;4.97;;;2.97;;
62058;SDS011;48017;51.064;7.014;2022-11-15T05:16:30;4.10;;;2.60;;
62058;SDS011;48017;51.064;7.014;2022-11-15T05:18:56;5.03;;;2.75;;
62058;SDS011;48017;51.064;7.014;2022-11-15T05:21:21;4.25;;;2.50;;
62058;SDS011;48017;51.064;7.014;2022-11-15T05:23:47;6.03;;;2.90;;
62058;SDS011;48017;51.064;7.014;2022-11-15T05:26:12;5.85;;;2.75;;
62058;SDS011;48017;51.064;7.014;2022-11-15T05:28:39;4.65;;;2.72;;
62058;SDS011;48017;51.064;7.014;2022-11-15T05:31:08;6.60;;;3.40;;
62058;SDS011;48017;51.064;7.014;2022-11-15T05:33:36;5.32;;;3.30;;
62058;SDS011;48017;51.064;7.014;2022-11-15T05:36:17;3.80;;;2.47;;
62058;SDS011;48017;51.064;7.014;2022-11-15T05:38:48;3.35;;;2.30;;
62058;SDS011;48017;51.064;7.014;2022-11-15T05:41:13;3.80;;;2.90;;
62058;SDS011;48017;51.064;7.014;2022-11-15T05:46:07;3.60;;;2.33;;
62058;SDS011;48017;51.064;7.014;2022-11-15T05:48:34;3.80;;;2.30;;
62058;SDS011;48017;51.064;7.014;2022-11-15T05:51:01;3.22;;;2.17;;
62058;SDS011;48017;51.064;7.014;2022-11-15T05:53:27;3.17;;;1.92;;
62058;SDS011;48017;51.064;7.014;2022-11-15T05:55:53;3.90;;;2.45;;
62058;SDS011;48017;51.064;7.014;2022-11-15T05:58:18;4.53;;;2.60;;
62058;SDS011;48017;51.064;7.014;2022-11-15T06:00:45;3.17;;;2.00;;
62058;SDS011;48017;51.064;7.014;2022-11-15T06:03:10;3.53;;;2.13;;
62058;SDS011;48017;51.064;7.014;2022-11-15T06:05:36;4.90;;;2.13;;
62058;SDS011;48017;51.064;7.014;2022-11-15T06:08:01;4.22;;;2.20;;
62058;SDS011;48017;51.064;7.014;2022-11-15T06:10:27;3.10;;;2.20;;
62058;SDS011;48017;51.064;7.014;2022-11-15T06:12:59;3.95;;;2.45;;
62058;SDS011;48017;51.064;7.014;2022-11-15T06:15:25;6.20;;;2.30;;
62058;SDS011;48017;51.064;7.014;2022-11-15T06:17:50;3.35;;;2.25;;
62058;SDS011;48017;51.064;7.014;2022-11-15T06:20:16;2.55;;;1.70;;
62058;SDS011;48017;51.064;7.014;2022-11-15T06:22:41;2.95;;;1.70;;
62058;SDS011;48017;51.064;7.014;2022-11-15T06:25:06;3.38;;;1.90;;
62058;SDS011;48017;51.064;7.014;2022-11-15T06:27:32;5.28;;;2.40;;
62058;SDS011;48017;51.064;7.014;2022-11-15T06:29:57;3.78;;;2.05;;
62058;SDS011;48017;51.064;7.014;2022-11-15T06:32:23;2.92;;;1.80;;
62058;SDS011;48017;51.064;7.014;2022-11-15T06:34:48;3.10;;;1.63;;
62058;SDS011;48017;51.064;7.014;2022-11-15T06:37:14;3.55;;;2.00;;
62058;SDS011;48017;51.064;7.014;2022-11-15T06:39:39;5.80;;;1.88;;
62058;SDS011;48017;51.064;7.014;2022-11-15T06:42:04;4.70;;;1.60;;
62058;SDS011;48017;51.064;7.014;2022-11-15T06:44:30;4.22;;;1.98;;
62058;SDS011;48017;51.064;7.014;2022-11-15T06:46:55;2.70;;;1.80;;
62058;SDS011;48017;51.064;7.014;2022-11-15T06:49:20;3.03;;;1.80;;
62058;SDS011;48017;51.064;7.014;2022-11-15T06:51:46;3.22;;;1.88;;
62058;SDS011;48017;51.064;7.014;2022-11-15T06:54:11;3.20;;;1.80;;
62058;SDS011;48017;51.064;7.014;2022-11-15T06:56:36;2.92;;;1.58;;
62058;SDS011;48017;51.064;7.014;2022-11-15T06:59:02;5.07;;;2.10;;
62058;SDS011;48017;51.064;7.014;2022-11-15T07:01:27;2.78;;;1.80;;
62058;SDS011;48017;51.064;7.014;2022-11-15T07:03:52;2.38;;;1.67;;
62058;SDS011;48017;51.064;7.014;2022-11-15T07:06:18;4.43;;;1.90;;
62058;SDS011;48017;51.064;7.014;2022-11-15T07:08:43;2.78;;;1.58;;
62058;SDS011;48017;51.064;7.014;2022-11-15T07:11:08;3.22;;;1.90;;
62058;SDS011;48017;51.064;7.014;2022-11-15T07:13:34;2.85;;;1.70;;
62058;SDS011;48017;51.064;7.014;2022-11-15T07:16:01;6.35;;;2.20;;
62058;SDS011;48017;51.064;7.014;2022-11-15T07:18:33;3.05;;;1.70;;
62058;SDS011;48017;51.064;7.014;2022-11-15T07:21:02;3.40;;;1.70;;
62058;SDS011;48017;51.064;7.014;2022-11-15T07:23:29;3.03;;;1.90;;
62058;SDS011;48017;51.064;7.014;2022-11-15T07:25:55;2.50;;;1.58;;
62058;SDS011;48017;51.064;7.014;2022-11-15T07:28:22;3.83;;;2.15;;
62058;SDS011;48017;51.064;7.014;2022-11-15T07:30:47;3.00;;;1.85;;
62058;SDS011;48017;51.064;7.014;2022-11-15T07:33:12;2.95;;;1.80;;
62058;SDS011;48017;51.064;7.014;2022-11-15T07:35:38;2.67;;;1.65;;
62058;SDS011;48017;51.064;7.014;2022-11-15T07:38:03;2.75;;;1.75;;
62058;SDS011;48017;51.064;7.014;2022-11-15T07:40:29;3.28;;;1.80;;
62058;SDS011;48017;51.064;7.014;2022-11-15T07:43:03;2.95;;;1.60;;
62058;SDS011;48017;51.064;7.014;2022-11-15T07:45:30;2.53;;;1.50;;
62058;SDS011;48017;51.064;7.014;2022-11-15T07:47:56;2.38;;;1.50;;
62058;SDS011;48017;51.064;7.014;2022-11-15T07:50:22;2.40;;;1.40;;
62058;SDS011;48017;51.064;7.014;2022-11-15T07:52:52;4.22;;;1.70;;
62058;SDS011;48017;51.064;7.014;2022-11-15T07:55:19;4.00;;;1.65;;
62058;SDS011;48017;51.064;7.014;2022-11-15T07:57:44;3.03;;;1.63;;
62058;SDS011;48017;51.064;7.014;2022-11-15T08:00:10;2.55;;;1.40;;
62058;SDS011;48017;51.064;7.014;2022-11-15T08:02:35;2.97;;;1.48;;
62058;SDS011;48017;51.064;7.014;2022-11-15T08:05:01;2.67;;;1.48;;
62058;SDS011;48017;51.064;7.014;2022-11-15T08:07:28;1.63;;;1.17;;
62058;SDS011;48017;51.064;7.014;2022-11-15T08:09:54;2.53;;;1.42;;
62058;SDS011;48017;51.064;7.014;2022-11-15T08:12:20;4.68;;;1.40;;
62058;SDS011;48017;51.064;7.014;2022-11-15T08:14:45;3.63;;;1.67;;
62058;SDS011;48017;51.064;7.014;2022-11-15T08:17:11;2.53;;;1.33;;
62058;SDS011;48017;51.064;7.014;2022-11-15T08:19:36;2.67;;;1.67;;
62058;SDS011;48017;51.064;7.014;2022-11-15T08:22:01;2.88;;;1.55;;
62058;SDS011;48017;51.064;7.014;2022-11-15T08:24:27;4.90;;;1.75;;
62058;SDS011;48017;51.064;7.014;2022-11-15T08:26:52;2.90;;;1.40;;
62058;SDS011;48017;51.064;7.014;2022-11-15T08:29:17;4.75;;;1.48;;
62058;SDS011;48017;51.064;7.014;2022-11-15T08:31:43;2.65;;;1.30;;
62058;SDS011;48017;51.064;7.014;2022-11-15T08:34:08;3.67;;;1.60;;
62058;SDS011;48017;51.064;7.014;2022-11-15T08:36:33;3.85;;;1.45;;
62058;SDS011;48017;51.064;7.014;2022-11-15T08:38:59;4.65;;;1.38;;
62058;SDS011;48017;51.064;7.014;2022-11-15T08:41:26;2.42;;;1.40;;
62058;SDS011;48017;51.064;7.014;2022-11-15T08:43:55;2.80;;;1.30;;
62058;SDS011;48017;51.064;7.014;2022-11-15T08:46:20;1.88;;;1.20;;
62058;SDS011;48017;51.064;7.014;2022-11-15T08:48:45;2.15;;;1.17;;
62058;SDS011;48017;51.064;7.014;2022-11-15T08:51:11;2.03;;;1.15;;
62058;SDS011;48017;51.064;7.014;2022-11-15T08:53:36;1.80;;;1.15;;
62058;SDS011;48017;51.064;7.014;2022-11-15T08:56:02;2.08;;;1.00;;
62058;SDS011;48017;51.064;7.014;2022-11-15T08:58:29;2.47;;;1.15;;
62058;SDS011;48017;51.064;7.014;2022-11-15T09:00:54;3.47;;;1.48;;
62058;SDS011;48017;51.064;7.014;2022-11-15T09:03:20;1.58;;;0.98;;
62058;SDS011;48017;51.064;7.014;2022-11-15T09:05:45;2.53;;;1.20;;
62058;SDS011;48017;51.064;7.014;2022-11-15T09:08:10;4.20;;;1.35;;
62058;SDS011;48017;51.064;7.014;2022-11-15T09:10:37;1.47;;;0.93;;
62058;SDS011;48017;51.064;7.014;2022-11-15T09:13:03;2.30;;;1.15;;
62058;SDS011;48017;51.064;7.014;2022-11-15T09:15:28;1.98;;;0.93;;
62058;SDS011;48017;51.064;7.014;2022-11-15T09:17:54;2.03;;;0.80;;
62058;SDS011;48017;51.064;7.014;2022-11-15T09:20:23;3.10;;;1.08;;
62058;SDS011;48017;51.064;7.014;2022-11-15T09:22:48;2.70;;;1.00;;
62058;SDS011;48017;51.064;7.014;2022-11-15T09:25:14;1.65;;;0.90;;
62058;SDS011;48017;51.064;7.014;2022-11-15T09:27:39;2.90;;;1.10;;
62058;SDS011;48017;51.064;7.014;2022-11-15T09:30:04;0.82;;;0.65;;
62058;SDS011;48017;51.064;7.014;2022-11-15T09:32:30;2.15;;;1.00;;
62058;SDS011;48017;51.064;7.014;2022-11-15T09:34:56;2.17;;;1.00;;
62058;SDS011;48017;51.064;7.014;2022-11-15T09:37:22;1.90;;;1.00;;
62058;SDS011;48017;51.064;7.014;2022-11-15T09:39:47;3.20;;;1.02;;
62058;SDS011;48017;51.064;7.014;2022-11-15T09:47:38;2.13;;;0.98;;
62058;SDS011;48017;51.064;7.014;2022-11-15T09:50:12;2.55;;;1.10;;
62058;SDS011;48017;51.064;7.014;2022-11-15T09:52:43;2.05;;;0.90;;
62058;SDS011;48017;51.064;7.014;2022-11-15T09:55:10;2.38;;;1.17;;
62058;SDS011;48017;51.064;7.014;2022-11-15T09:57:48;1.73;;;0.90;;
62058;SDS011;48017;51.064;7.014;2022-11-15T10:00:20;2.33;;;1.27;;
62058;SDS011;48017;51.064;7.014;2022-11-15T10:02:59;1.55;;;0.90;;
62058;SDS011;48017;51.064;7.014;2022-11-15T10:05:48;1.75;;;0.73;;
62058;SDS011;48017;51.064;7.014;2022-11-15T10:11:15;2.17;;;0.95;;
62058;SDS011;48017;51.064;7.014;2022-11-15T10:13:45;1.13;;;0.70;;
62058;SDS011;48017;51.064;7.014;2022-11-15T10:16:17;2.88;;;0.70;;
62058;SDS011;48017;51.064;7.014;2022-11-15T10:24:43;1.35;;;0.82;;
62058;SDS011;48017;51.064;7.014;2022-11-15T10:27:14;3.83;;;0.90;;
62058;SDS011;48017;51.064;7.014;2022-11-15T10:29:42;2.70;;;0.75;;
62058;SDS011;48017;51.064;7.014;2022-11-15T10:32:10;2.88;;;0.60;;
62058;SDS011;48017;51.064;7.014;2022-11-15T10:34:37;1.60;;;0.52;;
62058;SDS011;48017;51.064;7.014;2022-11-15T10:37:03;1.77;;;0.70;;
62058;SDS011;48017;51.064;7.014;2022-11-15T10:39:28;1.88;;;0.70;;
62058;SDS011;48017;51.064;7.014;2022-11-15T10:41:54;0.65;;;0.40;;
62058;SDS011;48017;51.064;7.014;2022-11-15T10:44:30;0.82;;;0.60;;
62058;SDS011;48017;51.064;7.014;2022-11-15T10:51:55;1.25;;;0.73;;
62058;SDS011;48017;51.064;7.014;2022-11-15T10:54:37;3.63;;;0.80;;
62058;SDS011;48017;51.064;7.014;2022-11-15T10:57:08;1.10;;;0.47;;
62058;SDS011;48017;51.064;7.014;2022-11-15T10:59:38;1.40;;;0.60;;
62058;SDS011;48017;51.064;7.014;2022-11-15T11:05:35;0.85;;;0.32;;
62058;SDS011;48017;51.064;7.014;2022-11-15T11:10:29;1.88;;;0.75;;
62058;SDS011;48017;51.064;7.014;2022-11-15T11:12:55;0.95;;;0.40;;
62058;SDS011;48017;51.064;7.014;2022-11-15T11:15:20;0.65;;;0.40;;
62058;SDS011;48017;51.064;7.014;2022-11-15T11:20:33;1.42;;;0.60;;
62058;SDS011;48017;51.064;7.014;2022-11-15T11:31:53;1.48;;;0.63;;
62058;SDS011;48017;51.064;7.014;2022-11-15T11:40:02;1.67;;;0.73;;
62058;SDS011;48017;51.064;7.014;2022-11-15T11:47:39;1.25;;;0.60;;
62058;SDS011;48017;51.064;7.014;2022-11-15T11:50:17;1.73;;;0.60;;
62058;SDS011;48017;51.064;7.014;2022-11-15T11:55:47;1.30;;;0.50;;
62058;SDS011;48017;51.064;7.014;2022-11-15T12:00:55;2.63;;;0.75;;
62058;SDS011;48017;51.064;7.014;2022-11-15T12:03:33;1.00;;;0.45;;
62058;SDS011;48017;51.064;7.014;2022-11-15T12:12:12;0.88;;;0.52;;
62058;SDS011;48017;51.064;7.014;2022-11-15T12:14:57;1.67;;;0.60;;
62058;SDS011;48017;51.064;7.014;2022-11-15T12:17:34;1.30;;;0.50;;
62058;SDS011;48017;51.064;7.014;2022-11-15T12:20:21;1.17;;;0.40;;
62058;SDS011;48017;51.064;7.014;2022-11-15T12:25:44;2.45;;;0.60;;
62058;SDS011;48017;51.064;7.014;2022-11-15T12:33:45;1.30;;;0.50;;
62058;SDS011;48017;51.064;7.014;2022-11-15T12:36:34;1.55;;;0.40;;
62058;SDS011;48017;51.064;7.014;2022-11-15T12:39:08;2.15;;;0.50;;
62058;SDS011;48017;51.064;7.014;2022-11-15T12:41:37;1.65;;;0.52;;
62058;SDS011;48017;51.064;7.014;2022-11-15T12:44:03;2.22;;;0.60;;
62058;SDS011;48017;51.064;7.014;2022-11-15T13:23:22;3.88;;;0.55;;
62058;SDS011;48017;51.064;7.014;2022-11-15T13:28:27;2.05;;;0.73;;
62058;SDS011;48017;51.064;7.014;2022-11-15T13:31:01;1.73;;;0.73;;
62058;SDS011;48017;51.064;7.014;2022-11-15T13:33:42;0.60;;;0.40;;
62058;SDS011;48017;51.064;7.014;2022-11-15T13:36:11;0.68;;;0.47;;
62058;SDS011;48017;51.064;7.014;2022-11-15T13:38:40;0.82;;;0.45;;
62058;SDS011;48017;51.064;7.014;2022-11-15T13:41:19;1.42;;;0.60;;
62058;SDS011;48017;51.064;7.014;2022-11-15T13:43:46;2.15;;;0.80;;
62058;SDS011;48017;51.064;7.014;2022-11-15T13:46:13;1.98;;;0.80;;
62058;SDS011;48017;51.064;7.014;2022-11-15T13:48:43;1.20;;;0.65;;
62058;SDS011;48017;51.064;7.014;2022-11-15T13:51:14;2.92;;;1.05;;
62058;SDS011;48017;51.064;7.014;2022-11-15T13:53:48;3.75;;;0.80;;
62058;SDS011;48017;51.064;7.014;2022-11-15T13:56:21;2.08;;;0.80;;
62058;SDS011;48017;51.064;7.014;2022-11-15T13:58:46;6.25;;;1.00;;
62058;SDS011;48017;51.064;7.014;2022-11-15T14:01:17;2.22;;;0.93;;
62058;SDS011;48017;51.064;7.014;2022-11-15T14:03:52;2.03;;;0.90;;
62058;SDS011;48017;51.064;7.014;2022-11-15T14:06:21;1.83;;;1.02;;
62058;SDS011;48017;51.064;7.014;2022-11-15T14:11:29;2.25;;;0.93;;
62058;SDS011;48017;51.064;7.014;2022-11-15T14:14:11;2.83;;;1.20;;
62058;SDS011;48017;51.064;7.014;2022-11-15T14:16:44;2.30;;;1.20;;
62058;SDS011;48017;51.064;7.014;2022-11-15T14:19:12;2.38;;;1.33;;
62058;SDS011;48017;51.064;7.014;2022-11-15T14:24:32;2.45;;;1.02;;
62058;SDS011;48017;51.064;7.014;2022-11-15T14:27:15;5.03;;;1.30;;
62058;SDS011;48017;51.064;7.014;2022-11-15T14:29:44;2.75;;;1.15;;
62058;SDS011;48017;51.064;7.014;2022-11-15T14:34:43;3.88;;;1.35;;
62058;SDS011;48017;51.064;7.014;2022-11-15T14:37:22;2.33;;;1.05;;
62058;SDS011;48017;51.064;7.014;2022-11-15T14:39:48;2.03;;;1.17;;
62058;SDS011;48017;51.064;7.014;2022-11-15T14:42:13;2.58;;;1.15;;
62058;SDS011;48017;51.064;7.014;2022-11-15T14:44:39;2.90;;;1.17;;
62058;SDS011;48017;51.064;7.014;2022-11-15T14:47:04;4.68;;;1.02;;
62058;SDS011;48017;51.064;7.014;2022-11-15T14:49:30;2.92;;;1.00;;
62058;SDS011;48017;51.064;7.014;2022-11-15T14:51:55;1.50;;;0.80;;
62058;SDS011;48017;51.064;7.014;2022-11-15T14:54:21;2.45;;;1.25;;
62058;SDS011;48017;51.064;7.014;2022-11-15T14:56:46;1.58;;;0.95;;
62058;SDS011;48017;51.064;7.014;2022-11-15T14:59:11;2.90;;;1.05;;
62058;SDS011;48017;51.064;7.014;2022-11-15T15:01:36;3.08;;;1.02;;
62058;SDS011;48017;51.064;7.014;2022-11-15T15:04:02;2.45;;;1.05;;
62058;SDS011;48017;51.064;7.014;2022-11-15T15:06:27;1.70;;;1.00;;
62058;SDS011;48017;51.064;7.014;2022-11-15T15:11:22;1.77;;;0.85;;
62058;SDS011;48017;51.064;7.014;2022-11-15T15:13:49;3.63;;;1.10;;
62058;SDS011;48017;51.064;7.014;2022-11-15T15:16:15;2.50;;;1.33;;
62058;SDS011;48017;51.064;7.014;2022-11-15T15:18:40;3.63;;;0.90;;
62058;SDS011;48017;51.064;7.014;2022-11-15T15:21:13;1.50;;;0.90;;
62058;SDS011;48017;51.064;7.014;2022-11-15T15:23:44;3.00;;;1.20;;
62058;SDS011;48017;51.064;7.014;2022-11-15T15:26:09;2.00;;;1.00;;
62058;SDS011;48017;51.064;7.014;2022-11-15T15:28:35;3.80;;;1.00;;
62058;SDS011;48017;51.064;7.014;2022-11-15T15:31:00;4.60;;;0.90;;
62058;SDS011;48017;51.064;7.014;2022-11-15T15:33:26;1.73;;;0.90;;
62058;SDS011;48017;51.064;7.014;2022-11-15T15:35:51;2.42;;;1.10;;
62058;SDS011;48017;51.064;7.014;2022-11-15T15:38:17;3.35;;;1.05;;
62058;SDS011;48017;51.064;7.014;2022-11-15T15:40:42;2.45;;;1.10;;
62058;SDS011;48017;51.064;7.014;2022-11-15T15:48:00;2.20;;;1.20;;
62058;SDS011;48017;51.064;7.014;2022-11-15T15:50:27;2.63;;;1.15;;
62058;SDS011;48017;51.064;7.014;2022-11-15T15:52:59;2.03;;;1.00;;
62058;SDS011;48017;51.064;7.014;2022-11-15T15:55:26;1.50;;;0.90;;
62058;SDS011;48017;51.064;7.014;2022-11-15T15:57:53;2.63;;;1.08;;
62058;SDS011;48017;51.064;7.014;2022-11-15T16:00:19;1.70;;;0.85;;
62058;SDS011;48017;51.064;7.014;2022-11-15T16:02:45;1.50;;;0.85;;
62058;SDS011;48017;51.064;7.014;2022-11-15T16:05:11;1.67;;;0.90;;
62058;SDS011;48017;51.064;7.014;2022-11-15T16:07:37;1.88;;;1.08;;
62058;SDS011;48017;51.064;7.014;2022-11-15T16:10:13;2.35;;;0.80;;
62058;SDS011;48017;51.064;7.014;2022-11-15T16:12:40;4.47;;;1.10;;
62058;SDS011;48017;51.064;7.014;2022-11-15T16:15:05;1.48;;;0.80;;
62058;SDS011;48017;51.064;7.014;2022-11-15T16:17:33;2.97;;;1.10;;
62058;SDS011;48017;51.064;7.014;2022-11-15T16:20:02;1.95;;;0.90;;
62058;SDS011;48017;51.064;7.014;2022-11-15T16:22:28;2.15;;;1.20;;
62058;SDS011;48017;51.064;7.014;2022-11-15T16:24:54;2.78;;;1.20;;
62058;SDS011;48017;51.064;7.014;2022-11-15T16:27:19;1.55;;;0.90;;
62058;SDS011;48017;51.064;7.014;2022-11-15T16:29:46;2.10;;;1.10;;
62058;SDS011;48017;51.064;7.014;2022-11-15T16:32:12;3.13;;;1.15;;
62058;SDS011;48017;51.064;7.014;2022-11-15T16:34:38;3.40;;;1.20;;
62058;SDS011;48017;51.064;7.014;2022-11-15T16:37:04;1.83;;;0.95;;
62058;SDS011;48017;51.064;7.014;2022-11-15T16:39:30;1.80;;;1.02;;
62058;SDS011;48017;51.064;7.014;2022-11-15T16:41:56;3.83;;;1.23;;
62058;SDS011;48017;51.064;7.014;2022-11-15T16:44:25;2.17;;;1.20;;
62058;SDS011;48017;51.064;7.014;2022-11-15T16:46:51;1.85;;;0.95;;
62058;SDS011;48017;51.064;7.014;2022-11-15T16:49:17;2.28;;;1.10;;
62058;SDS011;48017;51.064;7.014;2022-11-15T16:51:47;2.50;;;1.33;;
62058;SDS011;48017;51.064;7.014;2022-11-15T16:54:13;1.75;;;1.10;;
62058;SDS011;48017;51.064;7.014;2022-11-15T16:56:39;4.32;;;1.20;;
62058;SDS011;48017;51.064;7.014;2022-11-15T16:59:06;4.72;;;1.10;;
62058;SDS011;48017;51.064;7.014;2022-11-15T17:01:35;4.18;;;1.40;;
62058;SDS011;48017;51.064;7.014;2022-11-15T17:04:10;3.17;;;1.15;;
62058;SDS011;48017;51.064;7.014;2022-11-15T17:06:37;3.42;;;1.00;;
62058;SDS011;48017;51.064;7.014;2022-11-15T17:09:04;1.50;;;0.90;;
62058;SDS011;48017;51.064;7.014;2022-11-15T17:11:30;2.78;;;1.08;;
62058;SDS011;48017;51.064;7.014;2022-11-15T17:13:58;1.70;;;0.90;;
62058;SDS011;48017;51.064;7.014;2022-11-15T17:16:24;1.73;;;0.90;;
62058;SDS011;48017;51.064;7.014;2022-11-15T17:18:50;1.75;;;1.00;;
62058;SDS011;48017;51.064;7.014;2022-11-15T17:21:17;2.22;;;1.17;;
62058;SDS011;48017;51.064;7.014;2022-11-15T17:26:10;2.10;;;1.20;;
62058;SDS011;48017;51.064;7.014;2022-11-15T17:28:37;2.58;;;1.20;;
62058;SDS011;48017;51.064;7.014;2022-11-15T17:31:05;2.85;;;1.30;;
62058;SDS011;48017;51.064;7.014;2022-11-15T17:33:34;3.30;;;1.13;;